Pageville, Pennsylvania
Current Conditions -  °F | °C
As of 5:53 PM on Tuesday 27 Jan 2015 (Local Time) from KHZY Reporting Station
Overcast Overcast  
Wind Chill: 11°   Ceiling: 1300
Heat Index: 18°   Visibility: 10mi
Dew Point: 13°   Wind: 5mph
Humidity: 81%   Direction: 350°N
Pressure: 30.1"   Gusts: NA
Location:  41.8831°N, 80.4041°W
Report Text: KHZY 272253Z AUTO 35004KT 10SM OVC013 M08/M11 A3010 RMK AO2 SNE2157 SLP208 P0000 T10781106
Loading
Personal Weather Stations






























Interactive Weather Map New forecast layout! Learn more

10-Day Weather Forecast

Advertisements
Track Severe Weather on mobile